TTPP/POS METAR and TAF weather

Enter ICAO airport designator
Station Type Date Time Source
TTPP METAR 2022/09/26 09:00 UTC NOAA

TTPP 260900Z 00000KT 9999 VCTS FEW010CB SCT038 24/24 Q1010 NOSIG RMK CB SE SSE


Station Type Date Time Source
TTPP Decoded METAR 2022/09/26 09:00 UTC NOAA

Piarco International Airport, Trinidad, Trinidad and Tobago (TTPP) 10-37N 061-21W 15M
Sep 26, 2022 - 05:00 AM EDT / 2022.09.26 0900 UTC
Wind: Calm:0
Visibility: greater than 7 mile(s):0
Sky conditions: partly cloudy
Weather: thunder in the vicinity; Cumulonimbus clouds observed
Temperature: 75 F (24 C)
Dew Point: 75 F (24 C)
Relative Humidity: 100%
Pressure (altimeter): 29.83 in. Hg (1010 hPa)
ob: TTPP 260900Z 00000KT 9999 VCTS FEW010CB SCT038 24/24 Q1010 NOSIG RMK CB SE SSE
cycle: 9

Station Type Date Time Source
TTPP TAF 2022/09/26 06:27 UTC NOAA

TAF TTPP 260400Z 2606/2706 00000KT 9999 FEW016 PROB40
TEMPO 2608/2620 3000 TSRA SCT012CB BKN015
BECMG 2612/2614 11008KT SCT018
BECMG 2623/2701 00000KT FEW016

Example: see airport list